Azamara Quest — 9HOM8 — position and weather

sailwx.info

Track history (hours):
 
Tides and Currents Weather Stations Pressure Air Temp Water Temp Dewpoint Dewpoint Depression Visibility Wind Speed Wind Dir Waves Ship Positions

Azamara Quest

Last reported at 2019-Apr-25 08:16 UTC. Time now 2019-Apr-25 09:48 UTC.
Position N 33°57' E 134°56'.

Length 181 m; draft 5.9 m.

Type: Passenger vessel. MMSI: 256216000.

Date/timePositionNaut miles runAvg speedWind from/ knotsBaromVisibWave heightAir tempDewpointWater temp
2019-Apr-25 08:16N 33°57' E 134°56'517.6
2019-Apr-25 07:59N 34°02' E 134°57'817.7
2019-Apr-25 07:30N 34°11' E 134°58'815.8
2019-Apr-25 07:01N 34°18' E 134°59'918.1
2019-Apr-25 06:31N 34°26' E 135°05'918.3
2019-Apr-25 06:00N 34°32' E 135°13'815.9
2019-Apr-25 05:30N 34°40' E 135°15'3 4.5
2019-Apr-25 04:54N 34°41' E 135°12'0 0.0
2019-Apr-25 04:30N 34°41' E 135°12'0 0.0
2019-Apr-25 04:00N 34°41' E 135°12'0 0.0
2019-Apr-25 03:24N 34°41' E 135°12'0 0.0
2019-Apr-25 03:00N 34°41' E 135°12'0 0.0
2019-Apr-25 02:30N 34°41' E 135°12'0 0.0
2019-Apr-25 02:00N 34°41' E 135°12'0 0.0
2019-Apr-25 01:30N 34°41' E 135°12'0 0.0
2019-Apr-25 01:00N 34°41' E 135°12'0 0.0
2019-Apr-25 00:24N 34°41' E 135°12'0 0.0
2019-Apr-25 00:00N 34°41' E 135°12'0 0.0
2019-Apr-24 23:30N 34°41' E 135°12'0 0.0
2019-Apr-24 22:54N 34°41' E 135°12'0 0.0
2019-Apr-24 22:30N 34°41' E 135°12'0 0.0
2019-Apr-24 22:00N 34°41' E 135°12'0 0.0
2019-Apr-24 21:24N 34°41' E 135°12'0 0.0
2019-Apr-24 20:54N 34°41' E 135°12'0 0.0
2019-Apr-24 20:30N 34°41' E 135°12'0 0.0
2019-Apr-24 19:54N 34°41' E 135°12'0 0.0
2019-Apr-24 19:30N 34°41' E 135°12'0 0.0
2019-Apr-24 19:00N 34°41' E 135°12'0 0.0
2019-Apr-24 18:30N 34°41' E 135°12'0 0.0
2019-Apr-24 18:00N 34°41' E 135°12'0 0.0
2019-Apr-24 17:30N 34°41' E 135°12'0 0.0
2019-Apr-24 17:00N 34°41' E 135°12'0 0.0
2019-Apr-24 16:30N 34°41' E 135°12'0 0.0
2019-Apr-24 16:00N 34°41' E 135°12'0 0.0
2019-Apr-24 15:30N 34°41' E 135°12'0 0.0
2019-Apr-24 15:00N 34°41' E 135°12'0 0.0
2019-Apr-24 14:30N 34°41' E 135°12'0 0.0
2019-Apr-24 14:00N 34°41' E 135°12'0 0.0
2019-Apr-24 13:30N 34°41' E 135°12'0 0.0
2019-Apr-24 13:00N 34°41' E 135°12'0 0.0
2019-Apr-24 12:30N 34°41' E 135°12'0 0.0
2019-Apr-24 12:00N 34°41' E 135°12'0 0.0
2019-Apr-24 11:30N 34°41' E 135°12'0 0.0
2019-Apr-24 11:00N 34°41' E 135°12'0 0.0
2019-Apr-24 10:30N 34°41' E 135°12'0 0.0
2019-Apr-24 10:00N 34°41' E 135°12'0 0.0
2019-Apr-24 09:12N 34°41' E 135°12'0 0.0
2019-Apr-24 09:00N 34°41' E 135°12'0 0.0
2019-Apr-24 08:30N 34°41' E 135°12'0 0.0
2019-Apr-24 07:54N 34°41' E 135°12'0 0.0
2019-Apr-24 07:24N 34°41' E 135°12'0 0.0
2019-Apr-24 07:00N 34°41' E 135°12'0 0.0
2019-Apr-24 06:30N 34°41' E 135°12'0 0.0
2019-Apr-24 05:54N 34°41' E 135°12'0 0.0
2019-Apr-24 05:30N 34°41' E 135°12'0 0.0
2019-Apr-24 05:00N 34°41' E 135°12'0 0.0
2019-Apr-24 04:30N 34°41' E 135°12'0 0.0
2019-Apr-24 04:00N 34°41' E 135°12'0 0.0
2019-Apr-24 03:24N 34°41' E 135°12'0 0.0
2019-Apr-24 03:00N 34°41' E 135°12'0 0.0
2019-Apr-24 02:18N 34°41' E 135°12'0 0.0
2019-Apr-24 02:00N 34°41' E 135°12'0 0.0
2019-Apr-24 01:24N 34°41' E 135°12'0 0.0
2019-Apr-24 01:00N 34°41' E 135°12'0 0.0
2019-Apr-24 00:24N 34°41' E 135°12'0 0.0
2019-Apr-24 00:00N 34°41' E 135°12'0 0.0
2019-Apr-23 23:30N 34°41' E 135°12'0 0.2
2019-Apr-23 23:00N 34°41' E 135°12'3 6.0
2019-Apr-23 22:30N 34°39' E 135°16'4 7.7
2019-Apr-23 22:00N 34°36' E 135°15'5 9.7
2019-Apr-23 21:30N 34°35' E 135°09'510.0
2019-Apr-23 21:00N 34°36' E 135°03'510.1
2019-Apr-23 20:29N 34°36' E 134°57'611.5
2019-Apr-23 20:00N 34°34' E 134°51'612.4
2019-Apr-23 19:30N 34°31' E 134°44'612.1
2019-Apr-23 19:00N 34°28' E 134°38'2 3.9
2019-Apr-23 18:30N 34°26' E 134°38'1 2.8
2019-Apr-23 18:00N 34°26' E 134°36'4 7.4
2019-Apr-23 17:30N 34°23' E 134°33'4 7.8
2019-Apr-23 17:00N 34°20' E 134°30'4 7.2
2019-Apr-23 16:30N 34°22' E 134°26'5 8.5
2019-Apr-23 15:56N 34°23' E 134°21'90 3.5
2019-Apr-22 14:00N 34°00' E 132°36'38 1.7 240 / 31016.010.8 15.0-2.418.0
2019-Apr-21 16:00N 33°36' E 132°00'146 6.1 270 / 121013.0 5.4 14.0
2019-Apr-20 16:00N 34°54' E 129°30'2213.5 210 / 151013.027.0 14.0
2019-Apr-20 14:22N 35°05' E 129°07'3 9.2
2019-Apr-20 14:00N 35°07' E 129°03'0 0.3
2019-Apr-20 13:26N 35°07' E 129°03'0 0.0
2019-Apr-20 12:59N 35°07' E 129°03'0 0.0
2019-Apr-20 12:29N 35°07' E 129°03'0 0.0
2019-Apr-20 11:59N 35°07' E 129°03'0 0.0
2019-Apr-20 11:29N 35°07' E 129°03'0 0.0
2019-Apr-20 10:59N 35°07' E 129°03'0 0.0
2019-Apr-20 10:29N 35°07' E 129°03'0 0.0
2019-Apr-20 09:59N 35°07' E 129°03'0 0.0
2019-Apr-20 09:29N 35°07' E 129°03'0 0.0
2019-Apr-20 08:59N 35°07' E 129°03'0 0.0
2019-Apr-20 08:29N 35°07' E 129°03'0 0.0
2019-Apr-20 07:59N 35°07' E 129°03'0 0.0
2019-Apr-20 07:29N 35°07' E 129°03'0 0.0
2019-Apr-20 06:59N 35°07' E 129°03'0 0.0
2019-Apr-20 06:29N 35°07' E 129°03'0 0.0
2019-Apr-20 05:59N 35°07' E 129°03'0 0.0
2019-Apr-20 05:29N 35°07' E 129°03'0 0.0
2019-Apr-20 04:59N 35°07' E 129°03'0 0.0
2019-Apr-20 04:29N 35°07' E 129°03'0 0.0
2019-Apr-20 03:59N 35°07' E 129°03'0 0.0
2019-Apr-20 03:29N 35°07' E 129°03'0 0.0
2019-Apr-20 02:59N 35°07' E 129°03'0 0.0
2019-Apr-20 02:29N 35°07' E 129°03'0 0.0
2019-Apr-20 01:59N 35°07' E 129°03'0 0.0
2019-Apr-20 01:29N 35°07' E 129°03'0 0.0
2019-Apr-20 00:56N 35°07' E 129°03'0 0.0
2019-Apr-20 00:26N 35°07' E 129°03'0 0.0
2019-Apr-19 23:56N 35°07' E 129°03'0 0.8
2019-Apr-19 23:31N 35°06' E 129°03'11114.7
2019-Apr-19 16:00N 35°18' E 131°18'175174.6 050 / 121018.027.0 12.0
2019-Apr-19 15:00N 32°24' E 131°36'429 9.1 060 / 161018.010.8 12.0 2.919.0
2019-Apr-17 16:00N 37°54' E 137°12'2626.1 130 / 121015.010.8 11.0 6.8
2019-Apr-17 15:00N 38°12' E 137°36'13719.5 090 / 41013.010.8 11.0 1.519.0
2019-Apr-17 08:00N 39°42' E 139°48'   270 / 91014.027.0 17.0 15.0
Track history (hours):
 
Tides and Currents Weather Stations Pressure Air Temp Water Temp Dewpoint Dewpoint Depression Visibility Wind Speed Wind Dir Waves Ship Positions

Azamara Quest

Last reported at 2019-Apr-25 08:16 UTC. Time now 2019-Apr-25 09:48 UTC.
Position N 33°57' E 134°56'.

Length 181 m; draft 5.9 m.

Type: Passenger vessel. MMSI: 256216000.

Date/timePositionNaut miles runAvg speedWind from/ knotsBaromVisibWave heightAir tempDewpointWater temp
2019-Apr-25 08:16N 33°57' E 134°56'517.6
2019-Apr-25 07:59N 34°02' E 134°57'817.7
2019-Apr-25 07:30N 34°11' E 134°58'815.8
2019-Apr-25 07:01N 34°18' E 134°59'918.1
2019-Apr-25 06:31N 34°26' E 135°05'918.3
2019-Apr-25 06:00N 34°32' E 135°13'815.9
2019-Apr-25 05:30N 34°40' E 135°15'3 4.5
2019-Apr-25 04:54N 34°41' E 135°12'0 0.0
2019-Apr-25 04:30N 34°41' E 135°12'0 0.0
2019-Apr-25 04:00N 34°41' E 135°12'0 0.0
2019-Apr-25 03:24N 34°41' E 135°12'0 0.0
2019-Apr-25 03:00N 34°41' E 135°12'0 0.0
2019-Apr-25 02:30N 34°41' E 135°12'0 0.0
2019-Apr-25 02:00N 34°41' E 135°12'0 0.0
2019-Apr-25 01:30N 34°41' E 135°12'0 0.0
2019-Apr-25 01:00N 34°41' E 135°12'0 0.0
2019-Apr-25 00:24N 34°41' E 135°12'0 0.0
2019-Apr-25 00:00N 34°41' E 135°12'0 0.0
2019-Apr-24 23:30N 34°41' E 135°12'0 0.0
2019-Apr-24 22:54N 34°41' E 135°12'0 0.0
2019-Apr-24 22:30N 34°41' E 135°12'0 0.0
2019-Apr-24 22:00N 34°41' E 135°12'0 0.0
2019-Apr-24 21:24N 34°41' E 135°12'0 0.0
2019-Apr-24 20:54N 34°41' E 135°12'0 0.0
2019-Apr-24 20:30N 34°41' E 135°12'0 0.0
2019-Apr-24 19:54N 34°41' E 135°12'0 0.0
2019-Apr-24 19:30N 34°41' E 135°12'0 0.0
2019-Apr-24 19:00N 34°41' E 135°12'0 0.0
2019-Apr-24 18:30N 34°41' E 135°12'0 0.0
2019-Apr-24 18:00N 34°41' E 135°12'0 0.0
2019-Apr-24 17:30N 34°41' E 135°12'0 0.0
2019-Apr-24 17:00N 34°41' E 135°12'0 0.0
2019-Apr-24 16:30N 34°41' E 135°12'0 0.0
2019-Apr-24 16:00N 34°41' E 135°12'0 0.0
2019-Apr-24 15:30N 34°41' E 135°12'0 0.0
2019-Apr-24 15:00N 34°41' E 135°12'0 0.0
2019-Apr-24 14:30N 34°41' E 135°12'0 0.0
2019-Apr-24 14:00N 34°41' E 135°12'0 0.0
2019-Apr-24 13:30N 34°41' E 135°12'0 0.0
2019-Apr-24 13:00N 34°41' E 135°12'0 0.0
2019-Apr-24 12:30N 34°41' E 135°12'0 0.0
2019-Apr-24 12:00N 34°41' E 135°12'0 0.0
2019-Apr-24 11:30N 34°41' E 135°12'0 0.0
2019-Apr-24 11:00N 34°41' E 135°12'0 0.0
2019-Apr-24 10:30N 34°41' E 135°12'0 0.0
2019-Apr-24 10:00N 34°41' E 135°12'0 0.0
2019-Apr-24 09:12N 34°41' E 135°12'0 0.0
2019-Apr-24 09:00N 34°41' E 135°12'0 0.0
2019-Apr-24 08:30N 34°41' E 135°12'0 0.0
2019-Apr-24 07:54N 34°41' E 135°12'0 0.0
2019-Apr-24 07:24N 34°41' E 135°12'0 0.0
2019-Apr-24 07:00N 34°41' E 135°12'0 0.0
2019-Apr-24 06:30N 34°41' E 135°12'0 0.0
2019-Apr-24 05:54N 34°41' E 135°12'0 0.0
2019-Apr-24 05:30N 34°41' E 135°12'0 0.0
2019-Apr-24 05:00N 34°41' E 135°12'0 0.0
2019-Apr-24 04:30N 34°41' E 135°12'0 0.0
2019-Apr-24 04:00N 34°41' E 135°12'0 0.0
2019-Apr-24 03:24N 34°41' E 135°12'0 0.0
2019-Apr-24 03:00N 34°41' E 135°12'0 0.0
2019-Apr-24 02:18N 34°41' E 135°12'0 0.0
2019-Apr-24 02:00N 34°41' E 135°12'0 0.0
2019-Apr-24 01:24N 34°41' E 135°12'0 0.0
2019-Apr-24 01:00N 34°41' E 135°12'0 0.0
2019-Apr-24 00:24N 34°41' E 135°12'0 0.0
2019-Apr-24 00:00N 34°41' E 135°12'0 0.0
2019-Apr-23 23:30N 34°41' E 135°12'0 0.2
2019-Apr-23 23:00N 34°41' E 135°12'3 6.0
2019-Apr-23 22:30N 34°39' E 135°16'4 7.7
2019-Apr-23 22:00N 34°36' E 135°15'5 9.7
2019-Apr-23 21:30N 34°35' E 135°09'510.0
2019-Apr-23 21:00N 34°36' E 135°03'510.1
2019-Apr-23 20:29N 34°36' E 134°57'611.5
2019-Apr-23 20:00N 34°34' E 134°51'612.4
2019-Apr-23 19:30N 34°31' E 134°44'612.1
2019-Apr-23 19:00N 34°28' E 134°38'2 3.9
2019-Apr-23 18:30N 34°26' E 134°38'1 2.8
2019-Apr-23 18:00N 34°26' E 134°36'4 7.4
2019-Apr-23 17:30N 34°23' E 134°33'4 7.8
2019-Apr-23 17:00N 34°20' E 134°30'4 7.2
2019-Apr-23 16:30N 34°22' E 134°26'5 8.5
2019-Apr-23 15:56N 34°23' E 134°21'90 3.5
2019-Apr-22 14:00N 34°00' E 132°36'38 1.7 240 / 31016.010.8 15.0-2.418.0
2019-Apr-21 16:00N 33°36' E 132°00'146 6.1 270 / 121013.0 5.4 14.0
2019-Apr-20 16:00N 34°54' E 129°30'2213.5 210 / 151013.027.0 14.0
2019-Apr-20 14:22N 35°05' E 129°07'3 9.2
2019-Apr-20 14:00N 35°07' E 129°03'0 0.3
2019-Apr-20 13:26N 35°07' E 129°03'0 0.0
2019-Apr-20 12:59N 35°07' E 129°03'0 0.0
2019-Apr-20 12:29N 35°07' E 129°03'0 0.0
2019-Apr-20 11:59N 35°07' E 129°03'0 0.0
2019-Apr-20 11:29N 35°07' E 129°03'0 0.0
2019-Apr-20 10:59N 35°07' E 129°03'0 0.0
2019-Apr-20 10:29N 35°07' E 129°03'0 0.0
2019-Apr-20 09:59N 35°07' E 129°03'0 0.0
2019-Apr-20 09:29N 35°07' E 129°03'0 0.0
2019-Apr-20 08:59N 35°07' E 129°03'0 0.0
2019-Apr-20 08:29N 35°07' E 129°03'0 0.0
2019-Apr-20 07:59N 35°07' E 129°03'0 0.0
2019-Apr-20 07:29N 35°07' E 129°03'0 0.0
2019-Apr-20 06:59N 35°07' E 129°03'0 0.0
2019-Apr-20 06:29N 35°07' E 129°03'0 0.0
2019-Apr-20 05:59N 35°07' E 129°03'0 0.0
2019-Apr-20 05:29N 35°07' E 129°03'0 0.0
2019-Apr-20 04:59N 35°07' E 129°03'0 0.0
2019-Apr-20 04:29N 35°07' E 129°03'0 0.0
2019-Apr-20 03:59N 35°07' E 129°03'0 0.0
2019-Apr-20 03:29N 35°07' E 129°03'0 0.0
2019-Apr-20 02:59N 35°07' E 129°03'0 0.0
2019-Apr-20 02:29N 35°07' E 129°03'0 0.0
2019-Apr-20 01:59N 35°07' E 129°03'0 0.0
2019-Apr-20 01:29N 35°07' E 129°03'0 0.0
2019-Apr-20 00:56N 35°07' E 129°03'0 0.0
2019-Apr-20 00:26N 35°07' E 129°03'0 0.0
2019-Apr-19 23:56N 35°07' E 129°03'0 0.8
2019-Apr-19 23:31N 35°06' E 129°03'11114.7
2019-Apr-19 16:00N 35°18' E 131°18'175174.6 050 / 121018.027.0 12.0
2019-Apr-19 15:00N 32°24' E 131°36'429 9.1 060 / 161018.010.8 12.0 2.919.0
2019-Apr-17 16:00N 37°54' E 137°12'2626.1 130 / 121015.010.8 11.0 6.8
2019-Apr-17 15:00N 38°12' E 137°36'13719.5 090 / 41013.010.8 11.0 1.519.0
2019-Apr-17 08:00N 39°42' E 139°48'   270 / 91014.027.0 17.0 15.0

Dump ship's entire track history